createdAt,value
2022-09-28T00:00:10.840Z,0.95
2022-09-28T00:02:39.137Z,0.85
2022-09-28T00:05:07.414Z,0.90
2022-09-28T00:07:35.163Z,0.95
2022-09-28T00:10:02.860Z,1.08
2022-09-28T00:12:31.478Z,0.88
2022-09-28T00:15:00.531Z,1.20
2022-09-28T00:17:28.193Z,0.90
2022-09-28T00:19:57.915Z,0.80
2022-09-28T00:22:26.017Z,1.02
2022-09-28T00:24:53.722Z,0.90
2022-09-28T00:27:21.428Z,0.80
2022-09-28T00:29:49.107Z,1.00
2022-09-28T00:32:18.215Z,1.17
2022-09-28T00:34:46.803Z,1.33
2022-09-28T00:37:15.150Z,1.00
2022-09-28T00:39:43.499Z,0.80
2022-09-28T00:42:14.752Z,1.20
2022-09-28T00:44:49.015Z,0.88
2022-09-28T00:47:24.469Z,0.90
2022-09-28T00:49:58.101Z,0.80
2022-09-28T00:52:32.595Z,0.85
2022-09-28T00:55:03.283Z,0.88
2022-09-28T00:57:31.773Z,0.77
2022-09-28T01:00:03.208Z,0.90
2022-09-28T01:02:32.521Z,0.70
2022-09-28T01:05:01.451Z,1.05
2022-09-28T01:07:29.910Z,0.93
2022-09-28T01:09:57.755Z,0.95
2022-09-28T01:12:25.406Z,1.00
2022-09-28T01:14:53.798Z,1.10
2022-09-28T01:17:29.738Z,0.77
2022-09-28T01:20:19.149Z,0.85
2022-09-28T01:23:19.043Z,0.90
2022-09-28T01:25:54.313Z,1.00
2022-09-28T01:28:26.531Z,0.80
2022-09-28T01:31:04.535Z,0.70
2022-09-28T01:33:39.110Z,0.90
2022-09-28T01:36:12.751Z,0.97
2022-09-28T01:38:44.447Z,0.70
2022-09-28T01:41:13.439Z,0.82
2022-09-28T01:43:48.135Z,0.70
2022-09-28T01:46:20.375Z,0.90
2022-09-28T01:48:55.077Z,0.80
2022-09-28T01:51:29.346Z,1.00
2022-09-28T01:54:02.066Z,1.05
2022-09-28T01:56:34.498Z,0.80
2022-09-28T01:59:08.445Z,0.63
2022-09-28T02:01:41.000Z,0.88
2022-09-28T02:04:13.159Z,0.70
2022-09-28T02:06:47.816Z,0.70
2022-09-28T02:09:22.092Z,0.83
2022-09-28T02:11:55.388Z,1.08
2022-09-28T02:14:26.312Z,0.80
2022-09-28T02:16:55.747Z,1.13
2022-09-28T02:19:26.460Z,0.80
2022-09-28T02:21:58.934Z,0.80
2022-09-28T02:24:32.349Z,1.10
2022-09-28T02:27:04.560Z,0.77
2022-09-28T02:29:33.595Z,0.90
2022-09-28T02:32:01.461Z,0.77
2022-09-28T02:34:29.101Z,0.95
2022-09-28T02:36:56.950Z,0.90
2022-09-28T02:39:24.871Z,0.90
2022-09-28T02:42:01.943Z,1.00
2022-09-28T02:45:05.944Z,0.90
2022-09-28T02:47:53.103Z,1.15
2022-09-28T02:50:31.431Z,0.73
2022-09-28T02:53:22.242Z,0.70
2022-09-28T02:56:05.967Z,0.90
2022-09-28T02:58:38.425Z,0.90
2022-09-28T03:01:20.719Z,0.93
2022-09-28T03:03:53.719Z,0.80
2022-09-28T03:06:28.349Z,0.82
2022-09-28T03:09:01.571Z,0.83
2022-09-28T03:11:36.336Z,1.10
2022-09-28T03:14:05.191Z,0.80
2022-09-28T03:16:34.220Z,0.90
2022-09-28T03:19:01.946Z,1.00
2022-09-28T03:21:29.577Z,1.02
2022-09-28T03:23:57.682Z,0.90
2022-09-28T03:26:25.336Z,1.00
2022-09-28T03:28:53.015Z,1.20
2022-09-28T03:31:20.698Z,0.80
2022-09-28T03:33:49.821Z,0.80
2022-09-28T03:36:17.464Z,0.80
2022-09-28T03:38:45.099Z,0.80
2022-09-28T03:41:12.844Z,0.88
2022-09-28T03:43:40.630Z,0.80
2022-09-28T03:46:08.350Z,0.73
2022-09-28T03:48:37.198Z,1.00
2022-09-28T03:51:09.256Z,0.88
2022-09-28T03:53:37.385Z,0.70
2022-09-28T03:56:07.344Z,0.90
2022-09-28T03:58:35.654Z,1.15
2022-09-28T04:01:04.666Z,0.65
2022-09-28T04:03:32.582Z,0.90
2022-09-28T04:06:00.359Z,0.70
2022-09-28T04:08:29.921Z,0.60
2022-09-28T04:10:58.499Z,1.13
2022-09-28T04:13:26.250Z,0.82
2022-09-28T04:15:55.163Z,1.00
2022-09-28T04:18:23.654Z,0.60
2022-09-28T04:20:59.827Z,0.80
2022-09-28T04:23:29.908Z,0.65
2022-09-28T04:25:57.633Z,0.80
2022-09-28T04:28:42.983Z,0.70
2022-09-28T04:31:12.129Z,0.80
2022-09-28T04:33:39.857Z,0.80
2022-09-28T04:36:09.245Z,0.80
2022-09-28T04:38:52.222Z,1.02
2022-09-28T04:41:22.526Z,0.90
2022-09-28T04:43:50.889Z,1.00
2022-09-28T04:46:19.245Z,0.98
2022-09-28T04:48:46.989Z,0.90
2022-09-28T04:51:14.763Z,0.68
2022-09-28T04:53:43.804Z,0.70
2022-09-28T04:56:13.104Z,0.85
2022-09-28T04:58:40.873Z,0.65
2022-09-28T05:01:10.557Z,0.90
2022-09-28T05:03:39.378Z,0.80
2022-09-28T05:06:07.907Z,0.90
2022-09-28T05:08:36.116Z,0.90
2022-09-28T05:11:06.655Z,0.85
2022-09-28T05:13:38.251Z,0.75
2022-09-28T05:16:06.310Z,1.10
2022-09-28T05:18:34.091Z,0.93
2022-09-28T05:21:02.059Z,0.80
2022-09-28T05:23:29.815Z,0.80
2022-09-28T05:25:57.477Z,0.82
2022-09-28T05:28:29.941Z,0.80
2022-09-28T05:31:00.026Z,0.75
2022-09-28T05:33:28.395Z,0.82
2022-09-28T05:36:00.803Z,0.98
2022-09-28T05:38:28.990Z,0.85
2022-09-28T05:40:56.753Z,0.90
2022-09-28T05:43:25.936Z,0.80
2022-09-28T05:45:55.781Z,0.90
2022-09-28T05:48:23.767Z,0.88
2022-09-28T05:50:52.311Z,0.93
2022-09-28T05:53:20.283Z,0.80
2022-09-28T05:55:48.310Z,0.90
2022-09-28T05:58:16.139Z,1.35
2022-09-28T06:00:45.403Z,0.70
2022-09-28T06:03:15.199Z,0.93
2022-09-28T06:05:43.188Z,0.70
2022-09-28T06:08:11.610Z,1.00
2022-09-28T06:10:40.374Z,1.02
2022-09-28T06:13:08.841Z,0.80
2022-09-28T06:15:37.954Z,0.85
2022-09-28T06:18:10.473Z,0.90
2022-09-28T06:20:41.034Z,0.95
2022-09-28T06:23:09.112Z,1.05
2022-09-28T06:25:36.823Z,1.05
2022-09-28T06:28:05.929Z,0.90
2022-09-28T06:30:38.096Z,0.90
2022-09-28T06:33:10.738Z,0.95
2022-09-28T06:35:38.513Z,1.00
2022-09-28T06:38:06.269Z,1.02
2022-09-28T06:40:34.911Z,1.05
2022-09-28T06:43:06.674Z,1.00
2022-09-28T06:45:34.369Z,0.82
2022-09-28T06:48:03.202Z,0.82
2022-09-28T06:50:33.790Z,0.88
2022-09-28T06:53:02.378Z,0.80
2022-09-28T06:55:30.894Z,1.20
2022-09-28T06:58:00.080Z,1.00
2022-09-28T07:00:36.895Z,0.90
2022-09-28T07:03:07.629Z,1.00
2022-09-28T07:05:38.371Z,0.80
2022-09-28T07:08:06.432Z,0.77
2022-09-28T07:10:34.667Z,0.90
2022-09-28T07:13:04.829Z,0.88
2022-09-28T07:15:33.639Z,0.80
2022-09-28T07:18:04.135Z,0.90
2022-09-28T07:20:39.986Z,0.95
2022-09-28T07:23:19.388Z,0.90
2022-09-28T07:28:19.930Z,1.10
2022-09-28T07:30:48.703Z,0.70
2022-09-28T07:33:18.211Z,0.98
2022-09-28T07:35:52.217Z,0.77
2022-09-28T07:38:22.075Z,0.90
2022-09-28T07:41:07.446Z,1.02
2022-09-28T07:43:35.375Z,0.90
2022-09-28T07:46:03.347Z,0.95
2022-09-28T07:48:37.792Z,1.17
2022-09-28T07:51:05.951Z,1.08
2022-09-28T07:53:35.332Z,0.95
2022-09-28T07:56:07.963Z,0.90
2022-09-28T07:58:36.806Z,0.70
2022-09-28T08:01:07.296Z,0.90
2022-09-28T08:03:36.095Z,1.10
2022-09-28T08:06:07.327Z,0.80
2022-09-28T08:08:37.148Z,0.90
2022-09-28T08:37:28.759Z,0.80
2022-09-28T08:39:57.053Z,0.90
2022-09-28T08:42:35.351Z,1.10
2022-09-28T08:45:09.552Z,0.95
2022-09-28T08:48:04.296Z,1.10
2022-09-28T08:50:36.253Z,0.93
2022-09-28T08:53:20.438Z,1.05
2022-09-28T08:55:49.317Z,1.02
2022-09-28T08:58:23.374Z,1.17
2022-09-28T09:00:54.191Z,1.00
2022-09-28T09:03:24.525Z,1.63
2022-09-28T09:06:04.153Z,4.82
2022-09-28T09:08:46.017Z,4.03
2022-09-28T09:11:28.443Z,1.33
2022-09-28T09:14:27.800Z,1.10
2022-09-28T09:17:02.989Z,1.08
2022-09-28T09:19:40.588Z,1.00
2022-09-28T09:22:16.958Z,1.00
2022-09-28T09:24:51.465Z,0.80
2022-09-28T09:27:42.577Z,1.60
2022-09-28T09:30:12.899Z,1.13
2022-09-28T09:33:05.205Z,1.42
2022-09-28T09:36:10.377Z,1.45
2022-09-28T09:38:50.067Z,1.73
2022-09-28T09:41:32.637Z,1.70
2022-09-28T09:44:29.081Z,1.30
2022-09-28T09:49:32.434Z,1.90
2022-09-28T09:52:05.141Z,1.90
2022-09-28T09:54:38.404Z,1.90
2022-09-28T09:57:12.576Z,1.90
2022-09-28T09:59:44.502Z,2.05
2022-09-28T10:02:22.051Z,1.75
2022-09-28T10:04:53.297Z,1.75
2022-09-28T10:07:25.492Z,1.90
2022-09-28T10:09:58.320Z,2.10
2022-09-28T10:12:27.483Z,3.50
2022-09-28T10:14:56.227Z,1.90
2022-09-28T10:17:27.259Z,1.83
2022-09-28T10:19:56.928Z,1.70
2022-09-28T10:22:27.843Z,2.53
2022-09-28T10:24:58.548Z,2.63
2022-09-28T10:27:33.469Z,2.42
2022-09-28T10:30:11.233Z,2.00
2022-09-28T10:32:40.735Z,1.65
2022-09-28T10:35:22.476Z,1.50
2022-09-28T10:37:55.329Z,1.60
2022-09-28T10:40:43.870Z,1.80
2022-09-28T10:43:23.005Z,1.48
2022-09-28T10:46:01.943Z,1.40
2022-09-28T10:48:33.187Z,1.90
2022-09-28T10:51:04.509Z,1.50
2022-09-28T10:53:32.324Z,1.20
2022-09-28T10:56:03.613Z,1.45
2022-09-28T10:58:39.340Z,1.35
2022-09-28T11:01:11.301Z,1.40
2022-09-28T11:03:52.896Z,1.20
2022-09-28T11:06:26.925Z,1.67
2022-09-28T11:08:57.527Z,1.10
2022-09-28T11:11:25.719Z,1.52
2022-09-28T11:13:57.606Z,1.70
2022-09-28T11:16:30.011Z,1.65
2022-09-28T11:18:59.893Z,1.40
2022-09-28T11:21:32.129Z,1.77
2022-09-28T11:24:08.366Z,1.50
2022-09-28T11:26:39.549Z,1.35
2022-09-28T11:29:21.357Z,1.40
2022-09-28T11:31:49.286Z,1.30
2022-09-28T11:34:31.361Z,1.60
2022-09-28T11:37:23.553Z,1.70
2022-09-28T11:40:01.527Z,1.80
2022-09-28T11:42:42.831Z,1.42
2022-09-28T11:45:28.563Z,1.48
2022-09-28T11:48:00.616Z,1.75
2022-09-28T11:50:46.415Z,1.52
2022-09-28T11:53:24.020Z,1.63
2022-09-28T11:55:59.193Z,1.52
2022-09-28T11:58:32.592Z,1.90
2022-09-28T12:01:06.241Z,1.50
2022-09-28T12:03:40.529Z,1.70
2022-09-28T12:06:13.823Z,1.60
2022-09-28T12:08:46.877Z,1.40
2022-09-28T12:11:19.444Z,1.70
2022-09-28T12:13:51.569Z,1.88
2022-09-28T12:16:53.517Z,2.10
2022-09-28T12:19:20.029Z,1.70
2022-09-28T12:21:51.923Z,1.63
2022-09-28T12:24:24.260Z,1.30
2022-09-28T12:26:57.654Z,1.42
2022-09-28T12:29:30.468Z,1.48
2022-09-28T12:32:06.841Z,1.50
2022-09-28T12:34:34.854Z,1.90
2022-09-28T12:37:28.079Z,1.77
2022-09-28T12:40:24.574Z,1.70
2022-09-28T12:46:09.839Z,2.20
2022-09-28T12:51:53.994Z,2.15
2022-09-28T12:54:55.420Z,2.40
2022-09-28T12:57:42.852Z,1.80
2022-09-28T13:00:14.458Z,2.25
2022-09-28T13:03:07.531Z,2.75
2022-09-28T13:05:55.852Z,1.95
2022-09-28T13:08:36.039Z,1.80
2022-09-28T13:11:19.834Z,1.80
2022-09-28T13:13:56.407Z,1.75
2022-09-28T13:16:31.920Z,1.25
2022-09-28T13:19:07.122Z,2.13
2022-09-28T13:21:45.329Z,1.92
2022-09-28T13:24:32.156Z,3.05
2022-09-28T13:27:06.063Z,2.65
2022-09-28T13:29:35.710Z,3.10
2022-09-28T13:32:04.441Z,2.20
2022-09-28T13:34:35.186Z,2.15
2022-09-28T13:37:22.234Z,2.25
2022-09-28T13:39:52.820Z,2.10
2022-09-28T13:42:37.936Z,1.92
2022-09-28T13:45:25.227Z,2.60
2022-09-28T13:48:04.803Z,2.40
2022-09-28T13:50:45.787Z,3.40
2022-09-28T13:53:27.738Z,2.50
2022-09-28T13:56:03.170Z,2.33
2022-09-28T13:58:37.312Z,2.50
2022-09-28T14:01:11.347Z,3.00
2022-09-28T14:03:57.173Z,3.38
2022-09-28T14:06:28.150Z,5.40
2022-09-28T14:09:25.556Z,4.25
2022-09-28T14:11:58.932Z,3.58
2022-09-28T14:14:49.815Z,2.75
2022-09-28T14:17:54.391Z,2.78
2022-09-28T14:20:27.261Z,2.33
2022-09-28T14:23:27.276Z,2.75
2022-09-28T14:26:21.697Z,2.70
2022-09-28T14:29:09.279Z,2.50
2022-09-28T14:31:43.403Z,2.70
2022-09-28T14:34:26.853Z,2.78
2022-09-28T14:37:12.239Z,3.30
2022-09-28T14:40:03.570Z,3.13
2022-09-28T14:42:32.935Z,18.15
2022-09-28T14:45:28.891Z,5.38
2022-09-28T14:48:15.244Z,3.28
2022-09-28T14:50:43.317Z,3.13
2022-09-28T14:53:19.708Z,3.30
2022-09-28T14:55:51.864Z,2.85
2022-09-28T14:58:23.764Z,3.58
2022-09-28T15:00:59.291Z,3.55
2022-09-28T15:05:56.151Z,2.80
2022-09-28T15:08:23.909Z,2.75
2022-09-28T15:10:52.780Z,3.38
2022-09-28T15:13:25.834Z,3.85
2022-09-28T15:15:56.432Z,3.40
2022-09-28T15:18:57.707Z,3.20
2022-09-28T15:21:34.577Z,3.28
2022-09-28T15:24:02.513Z,3.78
2022-09-28T15:26:32.541Z,3.10
2022-09-28T15:29:04.007Z,3.70
2022-09-28T15:31:36.361Z,3.20
2022-09-28T15:34:30.323Z,2.80
2022-09-28T15:36:58.736Z,3.45
2022-09-28T15:39:32.043Z,2.65
2022-09-28T15:42:01.992Z,2.67
2022-09-28T15:44:33.511Z,3.13
2022-09-28T15:47:11.718Z,4.28
2022-09-28T15:49:45.189Z,3.28
2022-09-28T15:52:29.491Z,4.03
2022-09-28T15:54:59.002Z,4.07
2022-09-28T15:57:36.714Z,4.32
2022-09-28T16:00:22.560Z,3.28
2022-09-28T16:03:05.918Z,4.50
2022-09-28T16:05:42.933Z,4.82
2022-09-28T16:08:21.409Z,4.60
2022-09-28T16:10:59.130Z,4.15
2022-09-28T16:13:27.442Z,4.75
2022-09-28T16:15:59.942Z,4.68
2022-09-28T16:18:29.843Z,3.88
2022-09-28T16:21:13.352Z,3.60
2022-09-28T16:23:43.369Z,3.83
2022-09-28T16:26:17.590Z,3.88
2022-09-28T16:28:52.883Z,4.30
2022-09-28T16:31:34.363Z,4.32
2022-09-28T16:34:17.565Z,3.60
2022-09-28T16:36:47.785Z,4.50
2022-09-28T16:39:16.749Z,4.25
2022-09-28T16:41:49.648Z,3.70
2022-09-28T16:44:24.506Z,4.40
2022-09-28T16:46:56.906Z,3.83
2022-09-28T16:49:26.306Z,3.55
2022-09-28T16:51:54.229Z,3.90
2022-09-28T16:54:41.420Z,3.67
2022-09-28T16:57:12.254Z,4.32
2022-09-28T16:59:40.307Z,4.55
2022-09-28T17:02:42.123Z,3.65
2022-09-28T17:05:07.431Z,4.00
2022-09-28T17:07:35.444Z,3.42
2022-09-28T17:10:03.560Z,3.55
2022-09-28T17:12:31.334Z,3.80
2022-09-28T17:15:00.299Z,4.03
2022-09-28T17:17:31.478Z,3.70
2022-09-28T17:19:59.261Z,3.75
2022-09-28T17:22:27.037Z,3.28
2022-09-28T17:24:54.691Z,3.60
2022-09-28T17:27:22.413Z,4.00
2022-09-28T17:29:51.370Z,5.85
2022-09-28T17:32:20.436Z,4.60
2022-09-28T17:35:00.856Z,4.13
2022-09-28T17:37:36.226Z,3.63
2022-09-28T17:40:13.664Z,5.72
2022-09-28T17:42:41.404Z,4.90
2022-09-28T17:45:09.325Z,4.90
2022-09-28T17:47:37.410Z,4.88
2022-09-28T17:50:23.572Z,4.30
2022-09-28T17:52:53.081Z,12.25
2022-09-28T17:55:22.089Z,8.15
2022-09-28T17:57:49.823Z,5.45
2022-09-28T18:00:18.682Z,4.78
2022-09-28T18:02:46.451Z,5.20
2022-09-28T18:05:16.337Z,4.22
2022-09-28T18:07:47.600Z,3.70
2022-09-28T18:10:19.599Z,5.53
2022-09-28T18:12:47.302Z,5.20
2022-09-28T18:15:15.236Z,5.78
2022-09-28T18:17:43.206Z,18.52
2022-09-28T18:20:12.857Z,5.13
2022-09-28T18:22:42.221Z,4.63
2022-09-28T18:25:11.232Z,5.05
2022-09-28T18:27:39.726Z,5.65
2022-09-28T18:30:09.285Z,4.72
2022-09-28T18:32:38.688Z,4.60
2022-09-28T18:35:09.646Z,4.40
2022-09-28T18:37:38.566Z,5.57
2022-09-28T18:40:10.533Z,6.97
2022-09-28T18:42:40.130Z,5.15
2022-09-28T18:45:11.438Z,5.65
2022-09-28T18:47:40.127Z,4.40
2022-09-28T18:50:09.383Z,3.90
2022-09-28T18:52:38.101Z,3.95
2022-09-28T18:55:09.157Z,2.80
2022-09-28T18:57:38.747Z,2.35
2022-09-28T19:00:09.591Z,2.20
2022-09-28T19:02:38.686Z,2.20
2022-09-28T19:05:08.348Z,1.88
2022-09-28T19:07:36.601Z,3.13
2022-09-28T19:10:05.102Z,2.17
2022-09-28T19:12:35.649Z,2.40
2022-09-28T19:15:04.176Z,3.40
2022-09-28T19:17:34.326Z,3.05
2022-09-28T19:20:02.881Z,2.17
2022-09-28T19:22:31.722Z,2.05
2022-09-28T19:25:00.138Z,3.70
2022-09-28T19:27:28.326Z,2.42
2022-09-28T19:29:58.217Z,2.00
2022-09-28T19:32:26.639Z,2.28
2022-09-28T19:34:54.816Z,2.20
2022-09-28T19:37:23.533Z,3.72
2022-09-28T19:39:51.687Z,1.85
2022-09-28T19:42:19.907Z,1.77
2022-09-28T19:44:48.261Z,2.22
2022-09-28T19:47:20.206Z,1.80
2022-09-28T19:49:51.056Z,2.08
2022-09-28T19:52:19.172Z,2.05
2022-09-28T19:54:52.292Z,2.10
2022-09-28T19:57:20.712Z,2.40
2022-09-28T19:59:52.537Z,2.50
2022-09-28T20:02:23.583Z,3.53
2022-09-28T20:04:52.178Z,2.00
2022-09-28T20:07:20.693Z,2.20
2022-09-28T20:09:49.084Z,2.17
2022-09-28T20:12:17.249Z,2.40
2022-09-28T20:14:45.500Z,2.17
2022-09-28T20:17:13.654Z,2.28
2022-09-28T20:19:43.349Z,1.75
2022-09-28T20:22:12.377Z,2.10
2022-09-28T20:24:40.576Z,2.30
2022-09-28T20:27:09.080Z,2.15
2022-09-28T20:29:37.422Z,1.77
2022-09-28T20:32:05.745Z,1.95
2022-09-28T20:34:34.542Z,2.05
2022-09-28T20:37:04.120Z,2.08
2022-09-28T20:39:32.473Z,1.60
2022-09-28T20:42:00.557Z,2.20
2022-09-28T20:44:28.857Z,2.20
2022-09-28T20:46:57.481Z,2.45
2022-09-28T20:49:27.269Z,2.40
2022-09-28T20:51:55.652Z,1.73
2022-09-28T20:54:25.761Z,1.70
2022-09-28T20:56:54.020Z,1.80
2022-09-28T20:59:24.404Z,1.63
2022-09-28T21:01:52.727Z,1.95
2022-09-28T21:04:21.294Z,1.60
2022-09-28T21:06:49.641Z,1.98
2022-09-28T21:09:17.999Z,1.58
2022-09-28T21:11:48.439Z,1.77
2022-09-28T21:14:16.785Z,2.05
2022-09-28T21:16:44.964Z,1.80
2022-09-28T21:19:13.282Z,1.70
2022-09-28T21:21:41.687Z,1.80
2022-09-28T21:24:09.996Z,1.83
2022-09-28T21:26:39.235Z,1.90
2022-09-28T21:29:12.954Z,2.40
2022-09-28T21:31:42.824Z,1.88
2022-09-28T21:34:14.155Z,2.33
2022-09-28T21:36:43.628Z,1.58
2022-09-28T21:39:11.979Z,1.80
2022-09-28T21:41:40.487Z,1.90
2022-09-28T21:44:10.602Z,1.70
2022-09-28T21:46:40.091Z,2.03
2022-09-28T21:49:09.522Z,1.77
2022-09-28T21:51:38.217Z,2.00
2022-09-28T21:54:06.690Z,1.77
2022-09-28T21:56:34.811Z,1.88
2022-09-28T21:59:03.013Z,1.52
2022-09-28T22:01:32.726Z,1.90
2022-09-28T22:04:01.055Z,1.73
2022-09-28T22:06:29.260Z,2.10
2022-09-28T22:08:58.048Z,1.75
2022-09-28T22:11:28.031Z,1.92
2022-09-28T22:13:57.657Z,1.50
2022-09-28T22:16:27.188Z,1.52
2022-09-28T22:18:57.070Z,1.40
2022-09-28T22:21:26.727Z,1.50
2022-09-28T22:23:55.285Z,1.48
2022-09-28T22:26:24.981Z,1.70
2022-09-28T22:28:54.244Z,1.52
2022-09-28T22:31:25.133Z,1.50
2022-09-28T22:33:53.932Z,1.63
2022-09-28T22:36:23.876Z,1.85
2022-09-28T22:38:52.487Z,1.70
2022-09-28T22:41:21.564Z,1.55
2022-09-28T22:43:50.594Z,1.38
2022-09-28T22:46:20.945Z,1.73
2022-09-28T22:48:50.258Z,1.70
2022-09-28T22:51:18.593Z,1.63
2022-09-28T22:53:48.351Z,1.80
2022-09-28T22:56:18.953Z,1.80
2022-09-28T22:58:47.850Z,1.75
2022-09-28T23:08:08.640Z,2.10
2022-09-28T23:10:36.788Z,1.83
2022-09-28T23:13:04.887Z,2.00
2022-09-28T23:15:32.921Z,2.50
2022-09-28T23:18:01.109Z,2.15
2022-09-28T23:20:29.294Z,2.30
2022-09-28T23:22:59.015Z,2.45
2022-09-28T23:25:27.287Z,2.20
2022-09-28T23:27:55.292Z,2.20
2022-09-28T23:30:24.933Z,2.60
2022-09-28T23:32:54.380Z,2.60
2022-09-28T23:35:22.646Z,2.30
2022-09-28T23:37:52.026Z,2.53
2022-09-28T23:40:21.664Z,2.97
2022-09-28T23:42:49.800Z,2.55
2022-09-28T23:45:17.742Z,2.28
2022-09-28T23:47:45.703Z,2.40
2022-09-28T23:50:13.808Z,2.40
2022-09-28T23:52:42.001Z,2.70
2022-09-28T23:55:10.419Z,2.80
2022-09-28T23:57:43.869Z,2.47
